Terminal Aerodrome Forecast
Issued by NWS

Home | Current Version | Previous Version | Text Only | Print | Product List | Glossary On
Versions: 1 2 3 4 5 6 7 8 9 10 11 12 13 14 15 16 17 18 19 20
000
FTAK31 PAJN 231100
TAFAGY
TAF
PAGY 231123Z 2312/2412 VRB03KT P6SM VCSH BKN050 OVC080
     FM231800 VRB04KT P6SM VCSH BKN050 OVC070
     FM232100 21012KT P6SM VCSH OVC060
     FM240500 VRB03KT P6SM VCSH OVC050
      AMD LTD TO CLD VIS AND WIND=

USA.gov is the U.S. government's official web portal to all federal, state and local government web resources and services.